sensor_id;sensor_type;location;lat;lon;timestamp;P1;durP1;ratioP1;P2;durP2;ratioP2
52450;SDS011;38366;53.176;6.540;2023-01-08T00:01:47;5.35;;;2.65;;
52450;SDS011;38366;53.176;6.540;2023-01-08T00:04:13;4.10;;;2.25;;
52450;SDS011;38366;53.176;6.540;2023-01-08T00:06:42;3.75;;;2.33;;
52450;SDS011;38366;53.176;6.540;2023-01-08T00:09:09;3.50;;;2.45;;
52450;SDS011;38366;53.176;6.540;2023-01-08T00:11:35;3.03;;;2.08;;
52450;SDS011;38366;53.176;6.540;2023-01-08T00:14:01;5.57;;;2.70;;
52450;SDS011;38366;53.176;6.540;2023-01-08T00:16:26;3.73;;;2.17;;
52450;SDS011;38366;53.176;6.540;2023-01-08T00:18:52;3.75;;;2.05;;
52450;SDS011;38366;53.176;6.540;2023-01-08T00:21:18;5.33;;;2.23;;
52450;SDS011;38366;53.176;6.540;2023-01-08T00:26:10;3.42;;;1.98;;
52450;SDS011;38366;53.176;6.540;2023-01-08T00:28:37;4.47;;;2.30;;
52450;SDS011;38366;53.176;6.540;2023-01-08T00:31:05;4.95;;;2.60;;
52450;SDS011;38366;53.176;6.540;2023-01-08T00:33:32;4.47;;;2.38;;
52450;SDS011;38366;53.176;6.540;2023-01-08T00:35:58;7.40;;;2.63;;
52450;SDS011;38366;53.176;6.540;2023-01-08T00:38:24;2.92;;;1.80;;
52450;SDS011;38366;53.176;6.540;2023-01-08T00:40:53;2.70;;;2.17;;
52450;SDS011;38366;53.176;6.540;2023-01-08T00:43:19;5.30;;;2.50;;
52450;SDS011;38366;53.176;6.540;2023-01-08T00:45:45;4.10;;;2.10;;
52450;SDS011;38366;53.176;6.540;2023-01-08T00:48:11;3.97;;;2.08;;
52450;SDS011;38366;53.176;6.540;2023-01-08T00:50:36;4.57;;;2.30;;
52450;SDS011;38366;53.176;6.540;2023-01-08T00:53:02;2.28;;;1.58;;
52450;SDS011;38366;53.176;6.540;2023-01-08T00:55:28;4.35;;;2.40;;
52450;SDS011;38366;53.176;6.540;2023-01-08T00:57:54;7.50;;;2.15;;
52450;SDS011;38366;53.176;6.540;2023-01-08T01:00:22;3.88;;;2.33;;
52450;SDS011;38366;53.176;6.540;2023-01-08T01:02:49;3.08;;;2.13;;
52450;SDS011;38366;53.176;6.540;2023-01-08T01:05:14;3.72;;;2.42;;
52450;SDS011;38366;53.176;6.540;2023-01-08T01:07:41;3.30;;;2.40;;
52450;SDS011;38366;53.176;6.540;2023-01-08T01:10:08;2.03;;;1.45;;
52450;SDS011;38366;53.176;6.540;2023-01-08T01:12:35;3.25;;;2.10;;
52450;SDS011;38366;53.176;6.540;2023-01-08T01:15:03;4.13;;;2.17;;
52450;SDS011;38366;53.176;6.540;2023-01-08T01:17:30;3.10;;;1.80;;
52450;SDS011;38366;53.176;6.540;2023-01-08T01:19:56;2.80;;;1.90;;
52450;SDS011;38366;53.176;6.540;2023-01-08T01:22:21;3.07;;;1.80;;
52450;SDS011;38366;53.176;6.540;2023-01-08T01:24:47;4.13;;;1.80;;
52450;SDS011;38366;53.176;6.540;2023-01-08T01:27:13;3.90;;;1.63;;
52450;SDS011;38366;53.176;6.540;2023-01-08T01:29:38;4.82;;;2.20;;
52450;SDS011;38366;53.176;6.540;2023-01-08T01:32:04;3.67;;;1.98;;
52450;SDS011;38366;53.176;6.540;2023-01-08T01:34:30;3.03;;;1.80;;
52450;SDS011;38366;53.176;6.540;2023-01-08T01:36:56;4.95;;;2.13;;
52450;SDS011;38366;53.176;6.540;2023-01-08T01:39:21;3.42;;;1.88;;
52450;SDS011;38366;53.176;6.540;2023-01-08T01:41:47;3.97;;;2.03;;
52450;SDS011;38366;53.176;6.540;2023-01-08T01:46:58;3.85;;;2.10;;
52450;SDS011;38366;53.176;6.540;2023-01-08T01:49:26;5.15;;;2.40;;
52450;SDS011;38366;53.176;6.540;2023-01-08T01:51:54;3.72;;;2.75;;
52450;SDS011;38366;53.176;6.540;2023-01-08T01:54:26;2.95;;;1.77;;
52450;SDS011;38366;53.176;6.540;2023-01-08T01:56:53;3.38;;;2.17;;
52450;SDS011;38366;53.176;6.540;2023-01-08T02:01:45;3.58;;;1.80;;
52450;SDS011;38366;53.176;6.540;2023-01-08T02:04:11;2.85;;;1.77;;
52450;SDS011;38366;53.176;6.540;2023-01-08T02:12:39;4.10;;;1.23;;
52450;SDS011;38366;53.176;6.540;2023-01-08T02:20:40;5.82;;;1.25;;
52450;SDS011;38366;53.176;6.540;2023-01-08T02:28:22;6.07;;;1.30;;
52450;SDS011;38366;53.176;6.540;2023-01-08T02:30:50;6.22;;;1.15;;
52450;SDS011;38366;53.176;6.540;2023-01-08T02:35:52;4.72;;;1.45;;
52450;SDS011;38366;53.176;6.540;2023-01-08T02:38:36;5.05;;;1.20;;
52450;SDS011;38366;53.176;6.540;2023-01-08T02:41:09;5.20;;;0.80;;
52450;SDS011;38366;53.176;6.540;2023-01-08T02:43:44;7.03;;;1.20;;
52450;SDS011;38366;53.176;6.540;2023-01-08T02:48:46;3.50;;;0.90;;
52450;SDS011;38366;53.176;6.540;2023-01-08T02:51:22;5.38;;;1.10;;
52450;SDS011;38366;53.176;6.540;2023-01-08T02:53:55;9.05;;;1.60;;
52450;SDS011;38366;53.176;6.540;2023-01-08T02:56:26;10.75;;;1.30;;
52450;SDS011;38366;53.176;6.540;2023-01-08T02:58:55;10.65;;;1.85;;
52450;SDS011;38366;53.176;6.540;2023-01-08T03:01:23;3.95;;;1.10;;
52450;SDS011;38366;53.176;6.540;2023-01-08T03:04:24;6.00;;;0.90;;
52450;SDS011;38366;53.176;6.540;2023-01-08T03:06:45;5.47;;;1.23;;
52450;SDS011;38366;53.176;6.540;2023-01-08T03:09:11;9.40;;;1.60;;
52450;SDS011;38366;53.176;6.540;2023-01-08T03:16:37;5.07;;;1.20;;
52450;SDS011;38366;53.176;6.540;2023-01-08T03:21:41;4.10;;;1.13;;
52450;SDS011;38366;53.176;6.540;2023-01-08T03:24:10;6.10;;;1.52;;
52450;SDS011;38366;53.176;6.540;2023-01-08T03:26:38;4.70;;;1.15;;
52450;SDS011;38366;53.176;6.540;2023-01-08T03:29:08;7.13;;;1.05;;
52450;SDS011;38366;53.176;6.540;2023-01-08T03:31:41;4.95;;;1.67;;
52450;SDS011;38366;53.176;6.540;2023-01-08T03:34:08;5.28;;;1.02;;
52450;SDS011;38366;53.176;6.540;2023-01-08T03:36:35;4.72;;;1.50;;
52450;SDS011;38366;53.176;6.540;2023-01-08T03:39:13;4.25;;;0.98;;
52450;SDS011;38366;53.176;6.540;2023-01-08T03:41:45;5.75;;;1.40;;
52450;SDS011;38366;53.176;6.540;2023-01-08T03:44:12;8.82;;;1.83;;
52450;SDS011;38366;53.176;6.540;2023-01-08T03:46:39;3.08;;;1.08;;
52450;SDS011;38366;53.176;6.540;2023-01-08T03:49:09;8.13;;;1.60;;
52450;SDS011;38366;53.176;6.540;2023-01-08T03:51:42;5.82;;;1.45;;
52450;SDS011;38366;53.176;6.540;2023-01-08T03:54:10;6.43;;;1.40;;
52450;SDS011;38366;53.176;6.540;2023-01-08T03:56:39;8.05;;;1.42;;
52450;SDS011;38366;53.176;6.540;2023-01-08T03:59:05;7.28;;;1.92;;
52450;SDS011;38366;53.176;6.540;2023-01-08T04:01:30;6.75;;;0.90;;
52450;SDS011;38366;53.176;6.540;2023-01-08T04:03:56;6.85;;;1.40;;
52450;SDS011;38366;53.176;6.540;2023-01-08T04:06:22;5.15;;;1.25;;
52450;SDS011;38366;53.176;6.540;2023-01-08T04:08:48;6.47;;;1.45;;
52450;SDS011;38366;53.176;6.540;2023-01-08T04:11:13;5.15;;;1.60;;
52450;SDS011;38366;53.176;6.540;2023-01-08T04:13:39;4.80;;;1.70;;
52450;SDS011;38366;53.176;6.540;2023-01-08T04:16:05;10.87;;;2.23;;
52450;SDS011;38366;53.176;6.540;2023-01-08T04:18:32;9.82;;;1.83;;
52450;SDS011;38366;53.176;6.540;2023-01-08T04:20:58;4.25;;;0.95;;
52450;SDS011;38366;53.176;6.540;2023-01-08T04:23:24;5.72;;;1.90;;
52450;SDS011;38366;53.176;6.540;2023-01-08T04:25:50;6.38;;;1.40;;
52450;SDS011;38366;53.176;6.540;2023-01-08T04:28:16;4.90;;;1.42;;
52450;SDS011;38366;53.176;6.540;2023-01-08T04:30:42;5.90;;;1.55;;
52450;SDS011;38366;53.176;6.540;2023-01-08T04:33:08;5.35;;;1.50;;
52450;SDS011;38366;53.176;6.540;2023-01-08T04:35:34;6.85;;;1.90;;
52450;SDS011;38366;53.176;6.540;2023-01-08T04:38:00;8.00;;;2.63;;
52450;SDS011;38366;53.176;6.540;2023-01-08T04:40:25;6.80;;;2.27;;
52450;SDS011;38366;53.176;6.540;2023-01-08T04:42:51;6.35;;;1.50;;
52450;SDS011;38366;53.176;6.540;2023-01-08T04:45:17;3.92;;;2.05;;
52450;SDS011;38366;53.176;6.540;2023-01-08T04:47:43;7.18;;;2.25;;
52450;SDS011;38366;53.176;6.540;2023-01-08T04:50:08;4.68;;;2.35;;
52450;SDS011;38366;53.176;6.540;2023-01-08T04:52:34;6.55;;;2.13;;
52450;SDS011;38366;53.176;6.540;2023-01-08T04:55:00;5.10;;;2.30;;
52450;SDS011;38366;53.176;6.540;2023-01-08T04:57:26;6.65;;;2.22;;
52450;SDS011;38366;53.176;6.540;2023-01-08T04:59:51;11.73;;;2.33;;
52450;SDS011;38366;53.176;6.540;2023-01-08T05:02:17;10.90;;;3.00;;
52450;SDS011;38366;53.176;6.540;2023-01-08T05:04:43;6.20;;;2.33;;
52450;SDS011;38366;53.176;6.540;2023-01-08T05:07:08;5.90;;;2.50;;
52450;SDS011;38366;53.176;6.540;2023-01-08T05:09:34;6.70;;;2.10;;
52450;SDS011;38366;53.176;6.540;2023-01-08T05:12:00;5.33;;;2.03;;
52450;SDS011;38366;53.176;6.540;2023-01-08T05:14:25;6.05;;;2.33;;
52450;SDS011;38366;53.176;6.540;2023-01-08T05:16:51;5.47;;;2.37;;
52450;SDS011;38366;53.176;6.540;2023-01-08T05:19:17;3.90;;;2.13;;
52450;SDS011;38366;53.176;6.540;2023-01-08T05:21:42;6.53;;;2.43;;
52450;SDS011;38366;53.176;6.540;2023-01-08T05:24:08;7.33;;;2.40;;
52450;SDS011;38366;53.176;6.540;2023-01-08T05:26:34;4.27;;;2.30;;
52450;SDS011;38366;53.176;6.540;2023-01-08T05:28:59;3.38;;;2.00;;
52450;SDS011;38366;53.176;6.540;2023-01-08T05:31:25;6.18;;;2.00;;
52450;SDS011;38366;53.176;6.540;2023-01-08T05:33:51;6.25;;;2.33;;
52450;SDS011;38366;53.176;6.540;2023-01-08T05:36:17;7.78;;;2.20;;
52450;SDS011;38366;53.176;6.540;2023-01-08T05:38:43;5.18;;;1.98;;
52450;SDS011;38366;53.176;6.540;2023-01-08T05:41:09;3.70;;;2.25;;
52450;SDS011;38366;53.176;6.540;2023-01-08T05:43:35;12.52;;;2.50;;
52450;SDS011;38366;53.176;6.540;2023-01-08T05:46:01;5.30;;;2.10;;
52450;SDS011;38366;53.176;6.540;2023-01-08T05:48:28;5.38;;;1.88;;
52450;SDS011;38366;53.176;6.540;2023-01-08T05:50:54;4.28;;;1.98;;
52450;SDS011;38366;53.176;6.540;2023-01-08T05:53:20;5.43;;;2.10;;
52450;SDS011;38366;53.176;6.540;2023-01-08T05:55:46;4.47;;;2.03;;
52450;SDS011;38366;53.176;6.540;2023-01-08T05:58:12;4.82;;;1.92;;
52450;SDS011;38366;53.176;6.540;2023-01-08T06:00:41;2.33;;;1.10;;
52450;SDS011;38366;53.176;6.540;2023-01-08T06:03:07;7.05;;;2.00;;
52450;SDS011;38366;53.176;6.540;2023-01-08T06:05:32;4.27;;;2.00;;
52450;SDS011;38366;53.176;6.540;2023-01-08T06:07:58;3.85;;;1.50;;
52450;SDS011;38366;53.176;6.540;2023-01-08T06:10:24;3.00;;;1.88;;
52450;SDS011;38366;53.176;6.540;2023-01-08T06:12:50;4.22;;;2.00;;
52450;SDS011;38366;53.176;6.540;2023-01-08T06:15:16;7.85;;;1.70;;
52450;SDS011;38366;53.176;6.540;2023-01-08T06:17:42;4.07;;;1.80;;
52450;SDS011;38366;53.176;6.540;2023-01-08T06:20:08;6.32;;;1.70;;
52450;SDS011;38366;53.176;6.540;2023-01-08T06:25:00;3.92;;;1.30;;
52450;SDS011;38366;53.176;6.540;2023-01-08T06:27:26;7.85;;;1.77;;
52450;SDS011;38366;53.176;6.540;2023-01-08T06:29:51;2.73;;;1.63;;
52450;SDS011;38366;53.176;6.540;2023-01-08T06:32:17;3.53;;;1.57;;
52450;SDS011;38366;53.176;6.540;2023-01-08T06:34:42;3.03;;;1.47;;
52450;SDS011;38366;53.176;6.540;2023-01-08T06:37:08;10.07;;;1.77;;
52450;SDS011;38366;53.176;6.540;2023-01-08T06:39:34;6.30;;;1.90;;
52450;SDS011;38366;53.176;6.540;2023-01-08T06:41:59;5.80;;;2.00;;
52450;SDS011;38366;53.176;6.540;2023-01-08T06:44:25;3.70;;;1.80;;
52450;SDS011;38366;53.176;6.540;2023-01-08T06:46:51;2.97;;;1.50;;
52450;SDS011;38366;53.176;6.540;2023-01-08T06:49:16;5.07;;;2.25;;
52450;SDS011;38366;53.176;6.540;2023-01-08T06:51:44;5.88;;;2.20;;
52450;SDS011;38366;53.176;6.540;2023-01-08T06:54:09;7.50;;;2.05;;
52450;SDS011;38366;53.176;6.540;2023-01-08T06:56:35;5.20;;;1.88;;
52450;SDS011;38366;53.176;6.540;2023-01-08T06:59:01;8.63;;;2.40;;
52450;SDS011;38366;53.176;6.540;2023-01-08T07:01:26;3.77;;;2.20;;
52450;SDS011;38366;53.176;6.540;2023-01-08T07:03:52;6.13;;;1.90;;
52450;SDS011;38366;53.176;6.540;2023-01-08T07:06:18;3.30;;;1.87;;
52450;SDS011;38366;53.176;6.540;2023-01-08T07:08:45;8.25;;;2.10;;
52450;SDS011;38366;53.176;6.540;2023-01-08T07:11:14;3.97;;;2.45;;
52450;SDS011;38366;53.176;6.540;2023-01-08T07:13:40;5.78;;;2.17;;
52450;SDS011;38366;53.176;6.540;2023-01-08T07:16:06;7.10;;;2.13;;
52450;SDS011;38366;53.176;6.540;2023-01-08T07:18:33;6.25;;;2.25;;
52450;SDS011;38366;53.176;6.540;2023-01-08T07:21:00;6.50;;;2.45;;
52450;SDS011;38366;53.176;6.540;2023-01-08T07:23:30;5.03;;;2.13;;
52450;SDS011;38366;53.176;6.540;2023-01-08T07:26:00;5.53;;;2.50;;
52450;SDS011;38366;53.176;6.540;2023-01-08T07:28:26;5.47;;;2.05;;
52450;SDS011;38366;53.176;6.540;2023-01-08T07:33:18;8.20;;;1.98;;
52450;SDS011;38366;53.176;6.540;2023-01-08T07:35:50;6.18;;;1.92;;
52450;SDS011;38366;53.176;6.540;2023-01-08T07:38:17;3.55;;;1.58;;
52450;SDS011;38366;53.176;6.540;2023-01-08T07:40:43;5.85;;;2.05;;
52450;SDS011;38366;53.176;6.540;2023-01-08T07:43:08;3.40;;;1.92;;
52450;SDS011;38366;53.176;6.540;2023-01-08T07:45:36;6.68;;;2.00;;
52450;SDS011;38366;53.176;6.540;2023-01-08T07:48:03;6.57;;;2.00;;
52450;SDS011;38366;53.176;6.540;2023-01-08T07:52:56;4.93;;;1.85;;
52450;SDS011;38366;53.176;6.540;2023-01-08T07:55:22;6.05;;;1.90;;
52450;SDS011;38366;53.176;6.540;2023-01-08T07:57:48;5.68;;;1.85;;
52450;SDS011;38366;53.176;6.540;2023-01-08T08:00:14;6.68;;;1.60;;
52450;SDS011;38366;53.176;6.540;2023-01-08T08:02:40;6.40;;;1.92;;
52450;SDS011;38366;53.176;6.540;2023-01-08T08:05:05;4.28;;;2.00;;
52450;SDS011;38366;53.176;6.540;2023-01-08T08:07:31;8.35;;;2.67;;
52450;SDS011;38366;53.176;6.540;2023-01-08T08:09:57;5.87;;;2.27;;
52450;SDS011;38366;53.176;6.540;2023-01-08T08:12:22;6.57;;;2.17;;
52450;SDS011;38366;53.176;6.540;2023-01-08T08:14:48;6.03;;;2.33;;
52450;SDS011;38366;53.176;6.540;2023-01-08T08:17:14;5.05;;;1.60;;
52450;SDS011;38366;53.176;6.540;2023-01-08T08:19:39;3.33;;;1.73;;
52450;SDS011;38366;53.176;6.540;2023-01-08T08:22:07;6.97;;;2.17;;
52450;SDS011;38366;53.176;6.540;2023-01-08T08:24:34;5.60;;;2.08;;
52450;SDS011;38366;53.176;6.540;2023-01-08T08:26:59;7.30;;;2.30;;
52450;SDS011;38366;53.176;6.540;2023-01-08T08:29:25;4.05;;;2.10;;
52450;SDS011;38366;53.176;6.540;2023-01-08T08:31:51;5.47;;;2.33;;
52450;SDS011;38366;53.176;6.540;2023-01-08T08:34:16;5.72;;;2.30;;
52450;SDS011;38366;53.176;6.540;2023-01-08T08:36:44;4.38;;;1.92;;
52450;SDS011;38366;53.176;6.540;2023-01-08T08:39:10;6.13;;;2.10;;
52450;SDS011;38366;53.176;6.540;2023-01-08T08:41:35;7.00;;;1.50;;
52450;SDS011;38366;53.176;6.540;2023-01-08T08:44:01;4.30;;;1.63;;
52450;SDS011;38366;53.176;6.540;2023-01-08T08:46:27;6.82;;;1.67;;
52450;SDS011;38366;53.176;6.540;2023-01-08T08:48:53;5.28;;;1.73;;
52450;SDS011;38366;53.176;6.540;2023-01-08T08:51:19;5.80;;;1.60;;
52450;SDS011;38366;53.176;6.540;2023-01-08T08:53:45;4.83;;;1.50;;
52450;SDS011;38366;53.176;6.540;2023-01-08T08:56:10;4.45;;;1.60;;
52450;SDS011;38366;53.176;6.540;2023-01-08T08:58:36;5.20;;;1.57;;
52450;SDS011;38366;53.176;6.540;2023-01-08T09:01:02;3.47;;;1.55;;
52450;SDS011;38366;53.176;6.540;2023-01-08T09:03:28;4.05;;;1.30;;
52450;SDS011;38366;53.176;6.540;2023-01-08T09:05:55;7.65;;;1.30;;
52450;SDS011;38366;53.176;6.540;2023-01-08T09:08:20;4.60;;;1.15;;
52450;SDS011;38366;53.176;6.540;2023-01-08T09:10:46;2.63;;;1.30;;
52450;SDS011;38366;53.176;6.540;2023-01-08T09:13:12;4.40;;;1.00;;
52450;SDS011;38366;53.176;6.540;2023-01-08T09:15:38;4.35;;;1.50;;
52450;SDS011;38366;53.176;6.540;2023-01-08T09:18:04;4.07;;;1.00;;
52450;SDS011;38366;53.176;6.540;2023-01-08T09:20:29;5.43;;;1.13;;
52450;SDS011;38366;53.176;6.540;2023-01-08T09:22:59;4.93;;;1.20;;
52450;SDS011;38366;53.176;6.540;2023-01-08T09:25:26;6.80;;;1.33;;
52450;SDS011;38366;53.176;6.540;2023-01-08T09:27:59;5.07;;;1.00;;
52450;SDS011;38366;53.176;6.540;2023-01-08T09:30:26;6.53;;;1.40;;
52450;SDS011;38366;53.176;6.540;2023-01-08T09:32:55;3.40;;;1.33;;
52450;SDS011;38366;53.176;6.540;2023-01-08T09:35:21;3.47;;;1.05;;
52450;SDS011;38366;53.176;6.540;2023-01-08T09:37:51;3.10;;;1.10;;
52450;SDS011;38366;53.176;6.540;2023-01-08T09:40:18;3.33;;;1.30;;
52450;SDS011;38366;53.176;6.540;2023-01-08T09:42:48;6.55;;;1.33;;
52450;SDS011;38366;53.176;6.540;2023-01-08T09:45:29;4.60;;;1.13;;
52450;SDS011;38366;53.176;6.540;2023-01-08T09:47:57;5.68;;;1.15;;
52450;SDS011;38366;53.176;6.540;2023-01-08T09:50:26;4.07;;;0.90;;
52450;SDS011;38366;53.176;6.540;2023-01-08T09:52:52;2.20;;;0.80;;
52450;SDS011;38366;53.176;6.540;2023-01-08T09:55:19;3.17;;;0.90;;
52450;SDS011;38366;53.176;6.540;2023-01-08T09:57:45;5.88;;;1.45;;
52450;SDS011;38366;53.176;6.540;2023-01-08T10:00:16;3.40;;;1.10;;
52450;SDS011;38366;53.176;6.540;2023-01-08T10:02:48;7.45;;;1.10;;
52450;SDS011;38366;53.176;6.540;2023-01-08T10:05:15;3.40;;;1.10;;
52450;SDS011;38366;53.176;6.540;2023-01-08T10:07:43;5.70;;;1.30;;
52450;SDS011;38366;53.176;6.540;2023-01-08T10:10:17;3.55;;;1.27;;
52450;SDS011;38366;53.176;6.540;2023-01-08T10:12:48;3.85;;;1.10;;
52450;SDS011;38366;53.176;6.540;2023-01-08T10:15:15;6.75;;;1.23;;
52450;SDS011;38366;53.176;6.540;2023-01-08T10:18:02;5.32;;;1.17;;
52450;SDS011;38366;53.176;6.540;2023-01-08T10:20:29;6.80;;;1.40;;
52450;SDS011;38366;53.176;6.540;2023-01-08T10:23:07;4.38;;;1.02;;
52450;SDS011;38366;53.176;6.540;2023-01-08T10:28:19;4.90;;;1.30;;
52450;SDS011;38366;53.176;6.540;2023-01-08T10:30:50;6.28;;;1.00;;
52450;SDS011;38366;53.176;6.540;2023-01-08T10:33:19;5.25;;;1.05;;
52450;SDS011;38366;53.176;6.540;2023-01-08T10:35:53;4.05;;;0.88;;
52450;SDS011;38366;53.176;6.540;2023-01-08T10:38:23;5.97;;;1.38;;
52450;SDS011;38366;53.176;6.540;2023-01-08T10:40:57;7.07;;;1.20;;
52450;SDS011;38366;53.176;6.540;2023-01-08T10:43:27;6.55;;;1.38;;
52450;SDS011;38366;53.176;6.540;2023-01-08T10:46:05;5.40;;;1.17;;
52450;SDS011;38366;53.176;6.540;2023-01-08T10:48:38;7.65;;;1.30;;
52450;SDS011;38366;53.176;6.540;2023-01-08T10:51:13;6.03;;;1.20;;
52450;SDS011;38366;53.176;6.540;2023-01-08T10:53:42;6.18;;;1.30;;
52450;SDS011;38366;53.176;6.540;2023-01-08T10:56:18;4.57;;;0.98;;
52450;SDS011;38366;53.176;6.540;2023-01-08T10:58:48;5.15;;;1.00;;
52450;SDS011;38366;53.176;6.540;2023-01-08T11:01:15;8.40;;;1.38;;
52450;SDS011;38366;53.176;6.540;2023-01-08T11:03:49;6.47;;;1.33;;
52450;SDS011;38366;53.176;6.540;2023-01-08T11:06:21;3.90;;;1.10;;
52450;SDS011;38366;53.176;6.540;2023-01-08T11:08:50;4.38;;;1.17;;
52450;SDS011;38366;53.176;6.540;2023-01-08T11:11:21;6.65;;;1.45;;
52450;SDS011;38366;53.176;6.540;2023-01-08T11:13:57;8.68;;;1.48;;
52450;SDS011;38366;53.176;6.540;2023-01-08T11:16:33;5.38;;;1.20;;
52450;SDS011;38366;53.176;6.540;2023-01-08T11:19:01;5.10;;;1.58;;
52450;SDS011;38366;53.176;6.540;2023-01-08T11:21:28;7.25;;;1.10;;
52450;SDS011;38366;53.176;6.540;2023-01-08T11:27:05;8.95;;;1.27;;
52450;SDS011;38366;53.176;6.540;2023-01-08T11:29:58;6.15;;;1.33;;
52450;SDS011;38366;53.176;6.540;2023-01-08T11:32:46;5.18;;;1.00;;
52450;SDS011;38366;53.176;6.540;2023-01-08T11:35:19;6.70;;;1.27;;
52450;SDS011;38366;53.176;6.540;2023-01-08T11:37:55;8.75;;;1.52;;
52450;SDS011;38366;53.176;6.540;2023-01-08T11:40:28;7.38;;;1.10;;
52450;SDS011;38366;53.176;6.540;2023-01-08T11:45:53;7.65;;;1.40;;
52450;SDS011;38366;53.176;6.540;2023-01-08T11:57:32;7.72;;;1.55;;
52450;SDS011;38366;53.176;6.540;2023-01-08T12:03:18;3.90;;;1.25;;
52450;SDS011;38366;53.176;6.540;2023-01-08T12:08:37;7.07;;;1.10;;
52450;SDS011;38366;53.176;6.540;2023-01-08T12:33:59;6.22;;;1.05;;
52450;SDS011;38366;53.176;6.540;2023-01-08T12:36:48;8.80;;;1.60;;
52450;SDS011;38366;53.176;6.540;2023-01-08T12:39:20;8.18;;;1.50;;
52450;SDS011;38366;53.176;6.540;2023-01-08T12:41:51;6.97;;;1.35;;
52450;SDS011;38366;53.176;6.540;2023-01-08T12:44:25;5.75;;;1.38;;
52450;SDS011;38366;53.176;6.540;2023-01-08T12:46:54;5.57;;;1.55;;
52450;SDS011;38366;53.176;6.540;2023-01-08T12:49:24;6.15;;;1.15;;
52450;SDS011;38366;53.176;6.540;2023-01-08T12:52:03;7.38;;;1.60;;
52450;SDS011;38366;53.176;6.540;2023-01-08T12:55:00;5.25;;;1.30;;
52450;SDS011;38366;53.176;6.540;2023-01-08T12:57:48;9.55;;;1.48;;
52450;SDS011;38366;53.176;6.540;2023-01-08T13:00:59;7.57;;;1.55;;
52450;SDS011;38366;53.176;6.540;2023-01-08T13:03:48;6.43;;;1.17;;
52450;SDS011;38366;53.176;6.540;2023-01-08T13:06:14;4.65;;;1.33;;
52450;SDS011;38366;53.176;6.540;2023-01-08T13:08:55;5.60;;;1.20;;
52450;SDS011;38366;53.176;6.540;2023-01-08T13:11:26;3.47;;;1.00;;
52450;SDS011;38366;53.176;6.540;2023-01-08T13:14:05;7.50;;;1.67;;
52450;SDS011;38366;53.176;6.540;2023-01-08T13:16:40;8.18;;;1.50;;
52450;SDS011;38366;53.176;6.540;2023-01-08T13:21:50;4.72;;;1.10;;
52450;SDS011;38366;53.176;6.540;2023-01-08T13:24:37;3.88;;;1.40;;
52450;SDS011;38366;53.176;6.540;2023-01-08T13:29:49;5.35;;;1.17;;
52450;SDS011;38366;53.176;6.540;2023-01-08T13:35:16;10.07;;;1.73;;
52450;SDS011;38366;53.176;6.540;2023-01-08T13:38:04;3.97;;;1.23;;
52450;SDS011;38366;53.176;6.540;2023-01-08T13:48:28;8.88;;;1.10;;
52450;SDS011;38366;53.176;6.540;2023-01-08T13:50:57;4.90;;;1.00;;
52450;SDS011;38366;53.176;6.540;2023-01-08T13:53:23;7.47;;;1.40;;
52450;SDS011;38366;53.176;6.540;2023-01-08T13:55:56;4.20;;;0.90;;
52450;SDS011;38366;53.176;6.540;2023-01-08T13:58:34;8.82;;;1.48;;
52450;SDS011;38366;53.176;6.540;2023-01-08T14:01:02;4.82;;;1.27;;
52450;SDS011;38366;53.176;6.540;2023-01-08T14:03:31;5.20;;;1.17;;
52450;SDS011;38366;53.176;6.540;2023-01-08T14:06:19;5.88;;;1.15;;
52450;SDS011;38366;53.176;6.540;2023-01-08T14:08:59;6.93;;;1.80;;
52450;SDS011;38366;53.176;6.540;2023-01-08T14:11:28;8.13;;;1.20;;
52450;SDS011;38366;53.176;6.540;2023-01-08T14:14:09;5.95;;;1.33;;
52450;SDS011;38366;53.176;6.540;2023-01-08T14:16:41;3.40;;;0.98;;
52450;SDS011;38366;53.176;6.540;2023-01-08T14:19:07;5.15;;;1.20;;
52450;SDS011;38366;53.176;6.540;2023-01-08T14:21:48;8.18;;;1.10;;
52450;SDS011;38366;53.176;6.540;2023-01-08T14:24:16;6.03;;;1.30;;
52450;SDS011;38366;53.176;6.540;2023-01-08T14:26:50;7.00;;;1.40;;
52450;SDS011;38366;53.176;6.540;2023-01-08T14:29:24;7.45;;;1.08;;
52450;SDS011;38366;53.176;6.540;2023-01-08T14:31:53;5.10;;;1.10;;
52450;SDS011;38366;53.176;6.540;2023-01-08T14:34:25;4.47;;;1.10;;
52450;SDS011;38366;53.176;6.540;2023-01-08T14:36:53;8.10;;;1.83;;
52450;SDS011;38366;53.176;6.540;2023-01-08T14:41:46;4.85;;;1.23;;
52450;SDS011;38366;53.176;6.540;2023-01-08T14:44:32;3.60;;;1.00;;
52450;SDS011;38366;53.176;6.540;2023-01-08T14:46:58;7.13;;;1.02;;
52450;SDS011;38366;53.176;6.540;2023-01-08T14:49:28;4.03;;;1.10;;
52450;SDS011;38366;53.176;6.540;2023-01-08T14:51:58;8.30;;;1.08;;
52450;SDS011;38366;53.176;6.540;2023-01-08T14:54:27;6.38;;;1.33;;
52450;SDS011;38366;53.176;6.540;2023-01-08T14:56:59;5.32;;;0.90;;
52450;SDS011;38366;53.176;6.540;2023-01-08T14:59:27;3.88;;;0.93;;
52450;SDS011;38366;53.176;6.540;2023-01-08T15:02:01;6.00;;;1.05;;
52450;SDS011;38366;53.176;6.540;2023-01-08T15:04:29;3.13;;;0.90;;
52450;SDS011;38366;53.176;6.540;2023-01-08T15:07:06;7.03;;;1.35;;
52450;SDS011;38366;53.176;6.540;2023-01-08T15:09:59;6.25;;;0.70;;
52450;SDS011;38366;53.176;6.540;2023-01-08T15:12:26;1.13;;;0.70;;
52450;SDS011;38366;53.176;6.540;2023-01-08T15:14:54;2.80;;;0.82;;
52450;SDS011;38366;53.176;6.540;2023-01-08T15:17:21;3.45;;;0.95;;
52450;SDS011;38366;53.176;6.540;2023-01-08T15:19:54;4.32;;;1.00;;
52450;SDS011;38366;53.176;6.540;2023-01-08T15:22:22;2.97;;;0.70;;
52450;SDS011;38366;53.176;6.540;2023-01-08T15:24:59;3.65;;;0.90;;
52450;SDS011;38366;53.176;6.540;2023-01-08T15:27:29;4.13;;;1.00;;
52450;SDS011;38366;53.176;6.540;2023-01-08T15:32:32;4.25;;;0.85;;
52450;SDS011;38366;53.176;6.540;2023-01-08T15:35:01;3.85;;;1.00;;
52450;SDS011;38366;53.176;6.540;2023-01-08T15:37:36;3.78;;;1.08;;
52450;SDS011;38366;53.176;6.540;2023-01-08T15:40:02;3.13;;;1.02;;
52450;SDS011;38366;53.176;6.540;2023-01-08T15:42:31;6.97;;;1.27;;
52450;SDS011;38366;53.176;6.540;2023-01-08T15:45:16;5.47;;;0.85;;
52450;SDS011;38366;53.176;6.540;2023-01-08T15:47:43;4.13;;;1.00;;
52450;SDS011;38366;53.176;6.540;2023-01-08T15:50:10;2.33;;;0.85;;
52450;SDS011;38366;53.176;6.540;2023-01-08T15:52:36;2.95;;;0.88;;
52450;SDS011;38366;53.176;6.540;2023-01-08T15:55:04;3.75;;;0.90;;
52450;SDS011;38366;53.176;6.540;2023-01-08T15:59:56;3.33;;;0.82;;
52450;SDS011;38366;53.176;6.540;2023-01-08T16:04:52;1.73;;;0.60;;
52450;SDS011;38366;53.176;6.540;2023-01-08T16:07:18;3.35;;;0.68;;
52450;SDS011;38366;53.176;6.540;2023-01-08T16:09:44;1.23;;;0.65;;
52450;SDS011;38366;53.176;6.540;2023-01-08T16:12:10;2.70;;;1.17;;
52450;SDS011;38366;53.176;6.540;2023-01-08T16:14:36;3.40;;;0.80;;
52450;SDS011;38366;53.176;6.540;2023-01-08T16:17:02;3.63;;;0.70;;
52450;SDS011;38366;53.176;6.540;2023-01-08T16:19:29;3.17;;;0.70;;
52450;SDS011;38366;53.176;6.540;2023-01-08T16:24:21;2.38;;;0.88;;
52450;SDS011;38366;53.176;6.540;2023-01-08T16:26:47;4.75;;;1.20;;
52450;SDS011;38366;53.176;6.540;2023-01-08T16:29:13;2.90;;;0.90;;
52450;SDS011;38366;53.176;6.540;2023-01-08T16:31:42;2.97;;;1.00;;
52450;SDS011;38366;53.176;6.540;2023-01-08T16:34:12;2.63;;;0.90;;
52450;SDS011;38366;53.176;6.540;2023-01-08T16:36:39;2.65;;;1.00;;
52450;SDS011;38366;53.176;6.540;2023-01-08T16:39:05;1.73;;;0.95;;
52450;SDS011;38366;53.176;6.540;2023-01-08T16:41:31;2.78;;;1.00;;
52450;SDS011;38366;53.176;6.540;2023-01-08T16:46:23;4.95;;;1.20;;
52450;SDS011;38366;53.176;6.540;2023-01-08T16:52:27;2.13;;;0.98;;
52450;SDS011;38366;53.176;6.540;2023-01-08T16:55:03;4.20;;;1.05;;
52450;SDS011;38366;53.176;6.540;2023-01-08T17:01:05;2.72;;;1.27;;
52450;SDS011;38366;53.176;6.540;2023-01-08T17:03:32;3.67;;;1.52;;
52450;SDS011;38366;53.176;6.540;2023-01-08T17:06:02;3.53;;;1.48;;
52450;SDS011;38366;53.176;6.540;2023-01-08T17:08:28;2.55;;;1.05;;